Time;durP1;ratioP1;P1;durP2;ratioP2;P2;SDS_P1;SDS_P2;PMS_P1;PMS_P2;Temp;Humidity;BMP_temperature;BMP_pressure;BME280_temperature;BME280_humidity;BME280_pressure;Samples;Min_cycle;Max_cycle;Signal;HPM_P1;HPM_P2
2022/12/17 13:06:53;;;;;;;10.57;9.98;;;;;;;6.47;100.00;100465.91;5009977;28;20468;-72
2022/12/17 13:09:29;;;;;;;9.38;8.98;;;;;;;6.71;100.00;100467.94;5005039;28;20034;-75
2022/12/17 13:12:01;;;;;;;9.75;9.25;;;;;;;6.55;100.00;100441.44;5010731;28;20030;-77
2022/12/17 13:14:34;;;;;;;9.82;9.32;;;;;;;6.48;100.00;100462.31;5042300;28;20113;-76
2022/12/17 13:17:20;;;;;;;9.27;8.87;;;;;;;6.59;100.00;100480.50;5018242;28;20026;-76
2022/12/17 13:20:13;;;;;;;10.55;9.95;;;;;;;6.35;100.00;100485.53;5017853;28;20021;-75
2022/12/17 13:22:49;;;;;;;9.65;9.15;;;;;;;6.38;100.00;100487.88;5009760;28;20029;-72
2022/12/17 13:25:18;;;;;;;10.27;9.77;;;;;;;6.21;100.00;100494.78;5012734;28;20034;-75
2022/12/17 13:27:44;;;;;;;10.05;9.55;;;;;;;6.16;100.00;100486.47;5012493;28;20036;-70
2022/12/17 13:30:15;;;;;;;10.82;10.23;;;;;;;6.07;100.00;100511.88;5006968;28;20829;-73
2022/12/17 13:33:04;;;;;;;10.80;10.20;;;;;;;6.20;100.00;100535.25;5019976;28;20059;-73
2022/12/17 13:35:32;;;;;;;10.15;9.65;;;;;;;6.07;100.00;100540.03;5011130;28;20026;-73
2022/12/17 13:38:07;;;;;;;10.93;10.32;;;;;;;5.81;100.00;100519.59;5008266;28;20042;-73
2022/12/17 13:41:12;;;;;;;10.95;10.35;;;;;;;5.93;100.00;100535.22;5010053;28;20030;-72
2022/12/17 13:43:42;;;;;;;;;;;;;;;5.72;100.00;100535.41;5005835;28;20037;-72
2022/12/17 13:46:23;;;;;;;10.18;9.68;;;;;;;5.71;100.00;100554.81;5009697;28;19921;-72
2022/12/17 13:49:24;;;;;;;10.93;10.32;;;;;;;5.60;100.00;100547.91;5007229;28;20033;-72
2022/12/17 13:52:01;;;;;;;12.70;11.90;;;;;;;5.72;100.00;100548.56;5005589;28;20121;-72
2022/12/17 13:54:26;;;;;;;11.23;10.63;;;;;;;5.64;100.00;100558.97;5006980;28;20021;-73
2022/12/17 13:56:53;;;;;;;10.00;9.50;;;;;;;5.52;100.00;100559.16;5006064;28;20041;-76
2022/12/17 13:59:24;;;;;;;10.15;9.65;;;;;;;5.42;100.00;100566.22;5013855;28;20349;-76
2022/12/17 14:01:53;;;;;;;9.13;8.73;;;;;;;5.44;100.00;100561.66;5012097;28;20537;-76
2022/12/17 14:04:29;;;;;;;9.80;9.30;;;;;;;5.42;100.00;100560.94;5012114;28;20026;-71
2022/12/17 14:06:58;;;;;;;10.13;9.63;;;;;;;5.53;100.00;100576.59;5003925;28;20032;-72
2022/12/17 14:09:32;;;;;;;10.25;9.75;;;;;;;5.41;100.00;100603.19;5008407;28;20068;-72
2022/12/17 14:12:20;;;;;;;9.95;9.45;;;;;;;5.40;100.00;100602.38;5022775;28;20030;-71
2022/12/17 14:14:48;;;;;;;9.70;9.20;;;;;;;5.45;100.00;100621.19;5008825;28;20037;-72
2022/12/17 14:17:20;;;;;;;9.63;9.13;;;;;;;5.44;100.00;100623.97;5011426;28;20489;-74
2022/12/17 14:19:47;;;;;;;9.80;9.30;;;;;;;5.42;100.00;100618.00;5008979;28;20036;-71
2022/12/17 14:22:37;;;;;;;10.90;10.30;;;;;;;5.38;100.00;100624.53;5001874;28;20026;-71
2022/12/17 14:25:09;;;;;;;10.13;9.63;;;;;;;5.40;100.00;100630.47;4994959;28;20038;-73
2022/12/17 14:27:35;;;;;;;9.80;9.30;;;;;;;5.38;100.00;100640.31;5007428;28;20021;-72
2022/12/17 14:30:18;;;;;;;10.52;9.98;;;;;;;5.42;100.00;100658.28;5010681;28;20029;-71
2022/12/17 14:32:44;;;;;;;10.38;9.88;;;;;;;5.49;100.00;100667.28;5007386;28;20038;-69
2022/12/17 14:35:29;;;;;;;10.70;10.10;;;;;;;5.67;100.00;100675.34;5006215;28;20113;-72
2022/12/17 14:37:55;;;;;;;9.55;9.05;;;;;;;5.63;100.00;100686.28;5009038;28;20393;-72
2022/12/17 14:40:22;;;;;;;10.43;9.90;;;;;;;5.60;100.00;100690.03;5008286;28;20049;-72
2022/12/17 14:42:49;;;;;;;9.27;8.88;;;;;;;5.53;100.00;100692.38;5011921;28;20096;-72
2022/12/17 14:45:22;;;;;;;9.82;9.32;;;;;;;5.32;100.00;100701.34;5009397;28;20050;-71
2022/12/17 14:47:53;;;;;;;10.13;9.63;;;;;;;5.33;100.00;100688.06;5009571;28;20041;-72
2022/12/17 14:50:18;;;;;;;10.68;10.07;;;;;;;5.31;100.00;100684.75;5007827;28;20320;-72
2022/12/17 14:52:45;;;;;;;9.82;9.32;;;;;;;5.49;100.00;100690.97;5010343;28;20046;-74
2022/12/17 14:55:38;;;;;;;10.15;9.65;;;;;;;5.43;100.00;100711.75;5011769;28;20054;-71
2022/12/17 14:58:07;;;;;;;10.75;10.15;;;;;;;5.61;100.00;100727.69;5011406;28;20140;-73
2022/12/17 15:00:33;;;;;;;10.27;9.75;;;;;;;5.63;100.00;100725.75;5009959;28;20493;-73
2022/12/17 15:02:59;;;;;;;10.50;9.90;;;;;;;5.48;100.00;100730.59;5010220;28;20481;-72
2022/12/17 15:05:24;;;;;;;9.93;9.43;;;;;;;5.40;100.00;100727.81;5011575;28;20060;-72
2022/12/17 15:07:50;;;;;;;10.98;10.38;;;;;;;5.38;100.00;100729.75;5007539;28;20113;-72
2022/12/17 15:10:19;;;;;;;10.75;10.15;;;;;;;5.31;100.00;100711.06;5011431;28;20026;-73
2022/12/17 15:12:45;;;;;;;10.02;9.52;;;;;;;5.33;100.00;100745.09;5011422;28;20489;-72
2022/12/17 15:15:12;;;;;;;9.93;9.43;;;;;;;5.35;100.00;100757.16;5011522;28;20054;-72
2022/12/17 15:17:38;;;;;;;10.02;9.52;;;;;;;5.36;100.00;100766.72;5014518;28;20037;-71
2022/12/17 15:20:04;;;;;;;10.05;9.55;;;;;;;5.18;100.00;100758.63;5009553;28;20112;-71
2022/12/17 15:22:29;;;;;;;10.30;9.80;;;;;;;5.00;100.00;100765.50;5010343;28;20026;-71
2022/12/17 15:24:55;;;;;;;9.95;9.45;;;;;;;5.17;100.00;100779.81;5008179;28;20034;-72
2022/12/17 15:27:20;;;;;;;11.32;10.73;;;;;;;4.94;100.00;100785.25;5011382;28;20038;-73
2022/12/17 15:29:47;;;;;;;11.02;10.43;;;;;;;5.04;100.00;100784.47;5012341;28;20493;-72
2022/12/17 15:32:18;;;;;;;9.68;9.18;;;;;;;4.84;100.00;100784.38;5012728;28;20026;-73
2022/12/17 15:34:44;;;;;;;10.13;9.63;;;;;;;4.78;100.00;100784.09;5015397;28;20045;-72
2022/12/17 15:37:12;;;;;;;9.73;9.25;;;;;;;4.58;100.00;100781.34;5015456;28;20022;-72
2022/12/17 15:39:38;;;;;;;9.65;9.18;;;;;;;4.75;100.00;100795.69;5015334;28;20025;-73
2022/12/17 15:44:47;;;;;;;10.65;10.05;;;;;;;4.81;100.00;100775.94;5010332;28;20041;-73
2022/12/17 15:47:13;;;;;;;10.07;9.57;;;;;;;4.75;100.00;100805.34;5015066;28;20022;-74
2022/12/17 15:49:38;;;;;;;9.30;8.90;;;;;;;4.89;100.00;100810.28;5013926;28;20126;-73
2022/12/17 15:52:04;;;;;;;9.52;9.02;;;;;;;4.95;100.00;100800.06;5014974;28;20091;-73
2022/12/17 15:54:29;;;;;;;10.43;9.85;;;;;;;4.87;100.00;100805.16;5013813;28;20125;-71
2022/12/17 15:56:55;;;;;;;9.75;9.25;;;;;;;5.04;100.00;100814.22;5013052;28;20108;-71
2022/12/17 15:59:22;;;;;;;10.48;9.88;;;;;;;4.75;100.00;100814.06;5012890;28;20017;-72
2022/12/17 16:01:48;;;;;;;9.20;8.80;;;;;;;4.86;100.00;100829.78;5015139;28;20048;-71
2022/12/17 16:04:13;;;;;;;10.02;9.52;;;;;;;4.82;100.00;100836.25;5013166;28;20488;-72
2022/12/17 16:06:39;;;;;;;11.55;10.85;;;;;;;4.91;100.00;100827.56;5013250;28;20026;-72
2022/12/17 16:09:04;;;;;;;9.70;9.20;;;;;;;4.91;100.00;100832.81;5014840;28;20064;-72
2022/12/17 16:11:30;;;;;;;9.75;9.25;;;;;;;4.68;100.00;100840.03;5014728;28;20036;-71
2022/12/17 16:13:55;;;;;;;9.27;8.88;;;;;;;4.97;100.00;100834.94;5012078;28;20047;-71
2022/12/17 16:16:22;;;;;;;9.90;9.40;;;;;;;4.79;100.00;100867.22;5016657;28;20025;-72
2022/12/17 16:18:47;;;;;;;10.25;9.75;;;;;;;4.78;100.00;100866.41;5014296;28;20111;-71
2022/12/17 16:21:13;;;;;;;10.50;9.93;;;;;;;4.64;100.00;100879.84;5011936;28;20053;-73
2022/12/17 16:23:38;;;;;;;9.93;9.43;;;;;;;4.83;100.00;100893.09;5014189;28;20064;-72
2022/12/17 16:26:07;;;;;;;9.20;8.80;;;;;;;4.75;100.00;100890.28;5014656;28;20037;-72
2022/12/17 16:28:34;;;;;;;10.23;9.73;;;;;;;4.72;100.00;100893.19;5012990;28;20132;-72
2022/12/17 16:31:02;;;;;;;9.80;9.30;;;;;;;4.68;100.00;100903.09;5013033;28;20033;-72
2022/12/17 16:33:37;;;;;;;10.05;9.55;;;;;;;4.80;100.00;100911.78;5011820;28;20029;-73
2022/12/17 16:36:04;;;;;;;10.30;9.80;;;;;;;4.88;100.00;100911.13;5014306;28;20034;-74
2022/12/17 16:38:30;;;;;;;9.80;9.30;;;;;;;4.92;100.00;100923.91;5010841;28;20471;-73
2022/12/17 16:40:57;;;;;;;9.88;9.38;;;;;;;4.79;100.00;100915.38;5014371;28;20129;-72
2022/12/17 16:43:24;;;;;;;10.18;9.68;;;;;;;4.94;100.00;100927.22;5014133;28;20602;-72
2022/12/17 16:45:51;;;;;;;9.90;9.40;;;;;;;4.76;100.00;100930.53;5013270;28;20484;-72
2022/12/17 16:48:18;;;;;;;10.10;9.60;;;;;;;4.93;100.00;100941.34;5013845;28;20030;-72
2022/12/17 16:50:44;;;;;;;9.68;9.18;;;;;;;5.01;100.00;100940.69;5012216;28;20892;-71
2022/12/17 16:53:10;;;;;;;9.60;9.10;;;;;;;4.63;100.00;100939.47;5013740;28;20509;-73
2022/12/17 16:55:47;;;;;;;9.80;9.30;;;;;;;4.71;100.00;100944.91;5013911;28;20056;-72
2022/12/17 16:58:16;;;;;;;9.55;9.10;;;;;;;4.68;100.00;100939.88;5013829;28;20026;-73
2022/12/17 17:00:42;;;;;;;9.98;9.48;;;;;;;4.49;100.00;100958.16;5012186;28;20052;-73
2022/12/17 17:03:08;;;;;;;10.75;10.15;;;;;;;4.43;100.00;100958.63;5012651;28;20057;-72
2022/12/17 17:05:36;;;;;;;10.05;9.55;;;;;;;4.44;100.00;100968.19;5014057;28;20393;-73
2022/12/17 17:08:02;;;;;;;9.80;9.30;;;;;;;4.43;100.00;100974.41;5010746;28;20100;-72
2022/12/17 17:10:29;;;;;;;9.90;9.40;;;;;;;4.67;100.00;100984.69;5011162;28;20132;-72
2022/12/17 17:12:54;;;;;;;10.65;10.05;;;;;;;4.80;100.00;100984.53;5026099;28;20061;-72
2022/12/17 17:15:24;;;;;;;10.40;9.90;;;;;;;4.56;100.00;100980.34;5013031;28;20054;-73
2022/12/17 17:17:50;;;;;;;10.02;9.52;;;;;;;4.79;100.00;100993.38;5013405;28;20031;-72
2022/12/17 17:20:16;;;;;;;9.63;9.13;;;;;;;4.84;100.00;101006.97;5013122;28;20388;-71
2022/12/17 17:22:42;;;;;;;9.95;9.45;;;;;;;4.77;100.00;100997.91;5011921;28;20117;-73
2022/12/17 17:25:09;;;;;;;9.90;9.40;;;;;;;4.69;100.00;101006.41;5010205;28;20484;-73
2022/12/17 17:27:36;;;;;;;9.93;9.43;;;;;;;4.71;100.00;100994.84;5013382;28;20041;-72
2022/12/17 17:30:02;;;;;;;9.65;9.15;;;;;;;4.50;100.00;100987.88;5013552;28;20076;-72
2022/12/17 17:32:28;;;;;;;10.05;9.55;;;;;;;4.46;100.00;100996.94;5008362;28;20041;-72
2022/12/17 17:34:53;;;;;;;9.82;9.32;;;;;;;4.65;100.00;101013.75;5007381;28;20022;-72
2022/12/17 17:37:19;;;;;;;10.10;9.60;;;;;;;4.49;100.00;101008.06;5011702;28;20022;-71
2022/12/17 17:39:45;;;;;;;9.13;8.73;;;;;;;4.46;100.00;101002.19;5011706;28;20025;-72
2022/12/17 17:42:10;;;;;;;9.40;9.00;;;;;;;4.44;100.00;101024.19;5010294;28;20109;-71
2022/12/17 17:44:37;;;;;;;9.43;9.02;;;;;;;4.36;100.00;101013.47;5013614;28;20022;-73
2022/12/17 17:47:02;;;;;;;10.18;9.68;;;;;;;4.16;100.00;101006.31;5012988;28;20492;-72
2022/12/17 17:49:28;;;;;;;9.68;9.18;;;;;;;4.22;100.00;101003.22;5012921;28;20172;-71
2022/12/17 17:51:54;;;;;;;9.75;9.25;;;;;;;4.31;100.00;101022.66;5011273;28;20034;-73
2022/12/17 17:54:19;;;;;;;10.43;9.93;;;;;;;4.39;100.00;101028.13;5012799;28;20108;-72
2022/12/17 17:56:45;;;;;;;10.02;9.52;;;;;;;4.02;100.00;100996.91;5011891;28;20033;-72
2022/12/17 17:59:14;;;;;;;9.82;9.32;;;;;;;4.24;100.00;101030.19;5010831;28;20026;-71
2022/12/17 18:01:43;;;;;;;9.90;9.40;;;;;;;4.35;100.00;101034.59;5012684;28;20025;-72
2022/12/17 18:04:11;;;;;;;9.48;9.07;;;;;;;4.20;100.00;101041.91;5011623;28;20029;-73
2022/12/17 18:06:38;;;;;;;9.88;9.38;;;;;;;4.39;100.00;101043.88;5012516;28;20100;-74
2022/12/17 18:09:05;;;;;;;9.75;9.30;;;;;;;4.15;100.00;101049.28;5012476;28;20128;-73
2022/12/17 18:11:31;;;;;;;11.00;10.40;;;;;;;4.35;100.00;101071.38;5010982;28;20048;-71
2022/12/17 18:13:59;;;;;;;9.63;9.13;;;;;;;4.51;100.00;101066.56;5011037;28;20030;-73
2022/12/17 18:16:35;;;;;;;10.18;9.68;;;;;;;4.55;100.00;101067.97;5010988;28;20029;-72
2022/12/17 18:19:22;;;;;;;9.70;9.20;;;;;;;4.41;100.00;101092.72;5012470;28;20026;-72
2022/12/17 18:21:48;;;;;;;10.48;9.90;;;;;;;4.26;100.00;101100.97;5011137;28;20460;-72
2022/12/17 18:24:15;;;;;;;10.80;10.20;;;;;;;4.24;100.00;101100.25;5010149;28;20033;-72
2022/12/17 18:26:42;;;;;;;9.80;9.30;;;;;;;4.20;100.00;101094.41;5012157;28;20036;-72
2022/12/17 18:29:10;;;;;;;9.55;9.05;;;;;;;4.09;100.00;101105.72;5024447;28;20499;-71
2022/12/17 18:31:36;;;;;;;10.15;9.65;;;;;;;4.03;100.00;101103.56;5011668;28;20057;-73
2022/12/17 18:34:02;;;;;;;10.80;10.20;;;;;;;4.05;100.00;101106.09;5007650;28;20143;-72
2022/12/17 18:36:31;;;;;;;10.23;9.73;;;;;;;3.99;100.00;101111.81;5017859;28;20068;-71
2022/12/17 18:38:59;;;;;;;10.10;9.60;;;;;;;3.81;100.00;101116.69;5016569;28;20026;-72
2022/12/17 18:44:10;;;;;;;10.52;9.95;;;;;;;3.86;100.00;101128.50;5011512;28;20021;-72
2022/12/17 18:46:36;;;;;;;9.80;9.30;;;;;;;3.97;100.00;101135.56;5015912;28;20448;-72
2022/12/17 18:49:04;;;;;;;9.98;9.48;;;;;;;3.98;100.00;101136.41;5031475;28;20030;-72
2022/12/17 18:51:30;;;;;;;9.90;9.40;;;;;;;3.97;100.00;101134.75;5016541;28;20072;-72
2022/12/17 18:53:57;;;;;;;10.85;10.25;;;;;;;3.95;100.00;101153.22;5016582;28;20473;-71
2022/12/17 18:56:23;;;;;;;9.65;9.15;;;;;;;3.87;100.00;101155.59;5015332;28;20029;-72
2022/12/17 18:58:51;;;;;;;9.85;9.35;;;;;;;3.78;100.00;101137.91;5017238;28;20045;-72
2022/12/17 19:01:25;;;;;;;9.98;9.48;;;;;;;3.85;100.00;101162.75;5010443;28;20038;-72
2022/12/17 19:03:51;;;;;;;10.55;9.95;;;;;;;3.99;100.00;101165.16;5010755;28;20017;-73
2022/12/17 19:06:18;;;;;;;10.25;9.68;;;;;;;3.57;100.00;101141.19;5014191;28;20054;-72
2022/12/17 19:08:44;;;;;;;10.60;10.00;;;;;;;3.80;100.00;101167.50;5011754;28;20026;-73
2022/12/17 19:11:10;;;;;;;9.65;9.18;;;;;;;3.81;100.00;101192.78;5014742;28;20030;-71
2022/12/17 19:13:36;;;;;;;10.35;9.85;;;;;;;3.73;100.00;101198.59;5015196;28;20034;-71
2022/12/17 19:16:14;;;;;;;9.88;9.38;;;;;;;3.70;100.00;101195.38;5014558;28;20519;-73
2022/12/17 19:18:39;;;;;;;10.32;9.77;;;;;;;3.72;100.00;101201.34;5011722;28;20428;-73
2022/12/17 19:21:07;;;;;;;10.63;10.02;;;;;;;3.71;100.00;101203.13;5012206;28;20037;-73
2022/12/17 19:23:33;;;;;;;9.70;9.20;;;;;;;3.75;100.00;101214.25;5010655;28;20036;-71
2022/12/17 19:26:11;;;;;;;9.48;9.00;;;;;;;3.63;100.00;101213.38;5007758;28;20017;-71
2022/12/17 19:28:48;;;;;;;10.43;9.93;;;;;;;3.64;100.00;101228.16;5010334;28;20101;-73
2022/12/17 19:31:15;;;;;;;10.50;9.93;;;;;;;3.62;100.00;101221.34;5011566;28;20029;-71
2022/12/17 19:33:41;;;;;;;9.35;8.95;;;;;;;3.70;100.00;101245.25;5009434;28;20022;-72
2022/12/17 19:36:12;;;;;;;9.38;8.98;;;;;;;3.60;100.00;101240.66;5009609;28;20435;-71
2022/12/17 19:38:38;;;;;;;9.40;9.00;;;;;;;3.62;100.00;101237.09;5011533;28;20030;-72
2022/12/17 19:41:09;;;;;;;9.77;9.27;;;;;;;3.48;100.00;101253.84;5008942;28;20038;-72
2022/12/17 19:43:34;;;;;;;10.43;9.88;;;;;;;3.59;100.00;101259.97;5007556;28;20096;-72
2022/12/17 19:46:04;;;;;;;9.70;9.20;;;;;;;3.49;100.00;101260.75;5010545;28;20484;-73
2022/12/17 19:48:32;;;;;;;9.43;9.02;;;;;;;3.45;100.00;101278.50;5011375;28;20030;-72
2022/12/17 19:50:58;;;;;;;9.75;9.25;;;;;;;3.53;100.00;101268.31;5011266;28;20477;-72
2022/12/17 19:53:26;;;;;;;9.90;9.40;;;;;;;3.50;100.00;101273.75;5011123;28;20134;-72
2022/12/17 19:55:53;;;;;;;10.13;9.63;;;;;;;3.43;100.00;101292.66;5010284;28;20424;-72
2022/12/17 19:58:19;;;;;;;9.98;9.48;;;;;;;3.33;100.00;101290.69;5008949;28;20032;-73
2022/12/17 20:00:44;;;;;;;9.68;9.20;;;;;;;3.24;100.00;101294.00;5010968;28;20022;-73
2022/12/17 20:03:10;;;;;;;9.90;9.40;;;;;;;3.39;100.00;101314.81;5009288;28;20025;-72
2022/12/17 20:05:35;;;;;;;9.20;8.80;;;;;;;3.41;100.00;101313.75;5011276;28;20366;-73
2022/12/17 20:08:01;;;;;;;9.77;9.27;;;;;;;3.17;100.00;101323.38;5010074;28;20033;-72
2022/12/17 20:10:26;;;;;;;10.82;10.23;;;;;;;3.30;100.00;101332.84;5009749;28;20385;-73
2022/12/17 20:12:52;;;;;;;9.98;9.48;;;;;;;3.34;100.00;101338.75;5012354;28;20382;-71
2022/12/17 20:15:17;;;;;;;9.90;9.40;;;;;;;3.24;100.00;101341.19;5013607;28;20037;-72
2022/12/17 20:17:43;;;;;;;9.85;9.35;;;;;;;3.16;100.00;101340.88;5015884;28;20061;-72
2022/12/17 20:20:09;;;;;;;10.10;9.60;;;;;;;3.15;100.00;101343.59;5014613;28;20026;-73
2022/12/17 20:22:34;;;;;;;9.85;9.35;;;;;;;3.25;100.00;101339.41;5011648;28;20178;-71
2022/12/17 20:25:05;;;;;;;9.30;8.90;;;;;;;3.36;100.00;101357.81;5014663;28;20029;-73
2022/12/17 20:27:30;;;;;;;10.20;9.70;;;;;;;3.02;100.00;101347.06;5014739;28;20034;-71
2022/12/17 20:29:56;;;;;;;9.80;9.30;;;;;;;2.96;100.00;101347.50;5013158;28;20092;-71
2022/12/17 20:32:21;;;;;;;9.85;9.35;;;;;;;2.90;100.00;101350.53;5010943;28;20024;-71
2022/12/17 20:34:47;;;;;;;9.50;9.05;;;;;;;2.89;100.00;101361.97;5014430;28;20044;-73
2022/12/17 20:37:14;;;;;;;9.50;9.10;;;;;;;2.96;100.00;101370.25;5014368;28;20034;-72
2022/12/17 20:39:39;;;;;;;9.57;9.13;;;;;;;2.79;100.00;101371.38;5014548;28;20033;-72
2022/12/17 20:42:04;;;;;;;10.25;9.75;;;;;;;2.88;100.00;101370.78;5014099;28;20026;-72
2022/12/17 20:44:30;;;;;;;9.77;9.27;;;;;;;2.87;100.00;101374.34;5012925;28;20141;-72
2022/12/17 20:46:55;;;;;;;10.27;9.77;;;;;;;2.89;100.00;101377.69;5012943;28;20124;-72
2022/12/17 20:49:21;;;;;;;10.13;9.63;;;;;;;2.91;100.00;101385.44;5012010;28;20076;-72
2022/12/17 20:51:46;;;;;;;9.32;8.93;;;;;;;2.93;100.00;101394.03;5014048;28;20409;-72
2022/12/17 20:54:12;;;;;;;9.82;9.32;;;;;;;2.74;100.00;101400.53;5013822;28;20026;-73
2022/12/17 20:56:38;;;;;;;9.80;9.30;;;;;;;2.87;100.00;101405.78;5014021;28;20050;-71
2022/12/17 20:59:07;;;;;;;9.90;9.40;;;;;;;3.02;100.00;101393.44;5013118;28;20041;-71
2022/12/17 21:01:34;;;;;;;10.00;9.50;;;;;;;2.93;100.00;101407.13;5012776;28;20562;-73
2022/12/17 21:04:00;;;;;;;10.23;9.73;;;;;;;2.70;100.00;101409.50;5011962;28;20053;-71
2022/12/17 21:06:34;;;;;;;10.02;9.52;;;;;;;2.73;100.00;101414.56;5009413;28;20114;-77
2022/12/17 21:09:00;;;;;;;10.65;10.05;;;;;;;2.72;100.00;101410.28;5013650;28;20032;-72
2022/12/17 21:11:28;;;;;;;9.40;9.00;;;;;;;2.57;100.00;101416.53;5013731;28;20034;-72
2022/12/17 21:13:55;;;;;;;9.75;9.25;;;;;;;2.69;100.00;101427.97;5013644;28;20030;-71
2022/12/17 21:16:23;;;;;;;9.60;9.15;;;;;;;2.68;100.00;101427.13;5015726;28;20028;-71
2022/12/17 21:18:57;;;;;;;10.15;9.65;;;;;;;2.51;100.00;101431.81;5012923;28;20026;-72
2022/12/17 21:21:26;;;;;;;9.85;9.35;;;;;;;2.54;100.00;101431.59;5013773;28;20030;-73
2022/12/17 21:23:52;;;;;;;9.48;9.07;;;;;;;2.47;100.00;101437.22;5011513;28;20025;-71
2022/12/17 21:26:19;;;;;;;9.90;9.40;;;;;;;2.45;100.00;101451.38;5013501;28;20053;-72
2022/12/17 21:28:47;;;;;;;9.40;9.00;;;;;;;2.33;100.00;101434.66;5011729;28;20036;-72
2022/12/17 21:31:18;;;;;;;11.98;11.25;;;;;;;2.60;100.00;101455.63;5009689;28;20068;-71
2022/12/17 21:33:46;;;;;;;9.80;9.30;;;;;;;2.67;100.00;101449.03;5012731;28;20044;-72
2022/12/17 21:36:13;;;;;;;9.55;9.15;;;;;;;2.55;100.00;101441.13;5006530;28;20029;-71
2022/12/17 21:38:39;;;;;;;9.63;9.18;;;;;;;2.44;100.00;101434.00;5013914;28;20025;-73
2022/12/17 21:41:14;;;;;;;9.57;9.15;;;;;;;2.20;100.00;101397.13;5013240;28;20049;-72
2022/12/17 21:43:39;;;;;;;10.60;10.00;;;;;;;2.29;100.00;101425.34;5012002;28;20025;-71
2022/12/17 21:46:06;;;;;;;9.45;9.05;;;;;;;2.34;100.00;101428.50;5012419;28;20034;-73
2022/12/17 21:48:33;;;;;;;9.82;9.32;;;;;;;2.30;100.00;101447.13;5012007;28;20029;-70
2022/12/17 21:50:58;;;;;;;10.07;9.57;;;;;;;2.09;100.00;101446.72;5013617;28;20073;-73
2022/12/17 21:53:24;;;;;;;11.18;10.52;;;;;;;2.13;100.00;101467.38;5010907;28;20073;-70
2022/12/17 21:56:03;;;;;;;10.50;9.95;;;;;;;2.17;100.00;101473.25;5014700;28;20041;-70
2022/12/17 21:58:28;;;;;;;10.05;9.55;;;;;;;2.26;100.00;101463.97;5012775;28;20451;-74
2022/12/17 22:00:54;;;;;;;10.30;9.80;;;;;;;2.22;100.00;101477.25;5008592;28;20034;-73
2022/12/17 22:03:19;;;;;;;10.32;9.82;;;;;;;2.15;100.00;101478.59;5007020;28;20108;-73
2022/12/17 22:05:45;;;;;;;10.68;10.07;;;;;;;2.20;100.00;101493.97;5006677;28;20022;-75
2022/12/17 22:08:11;;;;;;;10.60;10.10;;;;;;;2.13;100.00;101501.41;5008077;28;20045;-75
2022/12/17 22:10:40;;;;;;;10.30;9.80;;;;;;;2.18;100.00;101512.41;5012506;28;20080;-76
2022/12/17 22:15:52;;;;;;;9.70;9.20;;;;;;;2.22;100.00;101520.94;5008237;28;20029;-72
2022/12/17 22:18:18;;;;;;;9.88;9.38;;;;;;;2.23;100.00;101527.84;5009282;28;20029;-73
2022/12/17 22:20:43;;;;;;;10.20;9.70;;;;;;;2.19;100.00;101531.56;5004679;28;20045;-72
2022/12/17 22:23:09;;;;;;;9.77;9.27;;;;;;;2.20;100.00;101541.09;5011620;28;20030;-74
2022/12/17 22:25:38;;;;;;;10.02;9.52;;;;;;;2.31;100.00;101548.31;5007886;28;20161;-72
2022/12/17 22:28:04;;;;;;;9.77;9.27;;;;;;;2.38;100.00;101550.44;5011979;28;20087;-72
2022/12/17 22:33:30;;;;;;;10.70;10.10;;;;;;;2.16;100.00;101550.09;4935356;29;20035;-77
2022/12/17 22:36:03;;;;;;;10.05;9.55;;;;;;;2.01;100.00;101548.44;4982524;28;20041;-73
2022/12/17 22:38:28;;;;;;;10.52;9.93;;;;;;;2.12;100.00;101559.91;5010482;28;20491;-72
2022/12/17 22:41:06;;;;;;;9.77;9.27;;;;;;;2.25;100.00;101559.16;5010102;28;20125;-73
2022/12/17 22:43:33;;;;;;;10.07;9.57;;;;;;;2.35;100.00;101562.88;5009474;28;20485;-73
2022/12/17 22:46:03;;;;;;;10.13;9.63;;;;;;;2.13;100.00;101550.28;5006388;28;20038;-72
2022/12/17 22:48:30;;;;;;;9.45;9.05;;;;;;;2.17;100.00;101560.47;5024828;28;20064;-71
2022/12/17 22:51:06;;;;;;;10.18;9.68;;;;;;;2.29;100.00;101564.13;5004876;28;20081;-73
2022/12/17 22:53:32;;;;;;;9.75;9.25;;;;;;;2.32;100.00;101577.00;5009970;28;20069;-72
2022/12/17 22:56:03;;;;;;;9.50;9.07;;;;;;;1.98;100.00;101573.00;5012360;28;20104;-73
2022/12/17 22:58:30;;;;;;;9.60;9.10;;;;;;;1.97;100.00;101581.78;5012739;28;20128;-71
2022/12/17 23:00:58;;;;;;;9.40;9.00;;;;;;;2.04;100.00;101583.09;5009412;28;20094;-73
2022/12/17 23:03:23;;;;;;;10.10;9.60;;;;;;;2.02;100.00;101577.13;5011967;28;20477;-73
2022/12/17 23:05:49;;;;;;;10.10;9.60;;;;;;;1.80;100.00;101584.59;5011362;28;20028;-73
2022/12/17 23:08:16;;;;;;;9.75;9.25;;;;;;;1.78;100.00;101571.59;5011907;28;20027;-71
2022/12/17 23:10:41;;;;;;;10.23;9.73;;;;;;;1.73;100.00;101588.50;5011483;28;20452;-72
2022/12/17 23:13:07;;;;;;;9.88;9.38;;;;;;;2.02;100.00;101602.44;5006810;28;20037;-72
2022/12/17 23:15:37;;;;;;;9.38;8.98;;;;;;;2.12;100.00;101601.78;5008831;28;20038;-72
2022/12/17 23:18:05;;;;;;;9.18;8.77;;;;;;;1.89;100.00;101611.03;5011033;28;20022;-73
2022/12/17 23:20:33;;;;;;;9.73;9.23;;;;;;;1.86;100.00;101615.63;5011738;28;20033;-72
2022/12/17 23:22:59;;;;;;;9.68;9.23;;;;;;;1.97;100.00;101614.97;5011653;28;20034;-71
2022/12/17 23:25:25;;;;;;;9.90;9.40;;;;;;;2.10;100.00;101614.13;5010734;28;20114;-71
2022/12/17 23:27:50;;;;;;;9.68;9.27;;;;;;;2.13;100.00;101613.09;5011062;28;20021;-72
2022/12/17 23:30:17;;;;;;;9.82;9.32;;;;;;;2.14;100.00;101614.81;5010452;28;20080;-72
2022/12/17 23:32:43;;;;;;;9.20;8.80;;;;;;;2.07;100.00;101605.63;5009630;28;20045;-72
2022/12/17 23:35:10;;;;;;;9.40;9.00;;;;;;;2.10;100.00;101618.53;5010529;28;20026;-72
2022/12/17 23:37:39;;;;;;;9.95;9.45;;;;;;;1.87;100.00;101623.38;5011983;28;20119;-72
2022/12/17 23:40:05;;;;;;;9.57;9.07;;;;;;;1.90;100.00;101624.94;5010869;28;20446;-73
2022/12/17 23:42:31;;;;;;;9.27;8.88;;;;;;;2.05;100.00;101652.81;5011920;28;20104;-72
2022/12/17 23:44:56;;;;;;;9.60;9.10;;;;;;;1.86;100.00;101650.47;5011534;28;20410;-73
2022/12/17 23:47:22;;;;;;;9.40;9.00;;;;;;;1.80;100.00;101645.59;5011606;28;20034;-71
2022/12/17 23:49:47;;;;;;;9.38;8.98;;;;;;;1.53;100.00;101663.75;5015636;28;20534;-71
2022/12/17 23:52:13;;;;;;;9.55;9.13;;;;;;;1.82;100.00;101662.03;5015048;28;20408;-72
2022/12/17 23:54:38;;;;;;;9.73;9.23;;;;;;;1.82;100.00;101664.66;5015691;28;20080;-72
2022/12/17 23:57:04;;;;;;;9.90;9.40;;;;;;;1.95;100.00;101675.25;5013269;28;20030;-72
2022/12/17 23:59:29;;;;;;;9.70;9.20;;;;;;;2.00;100.00;101670.59;5015353;28;20109;-72
